sensor_id;sensor_type;location;lat;lon;timestamp;pressure;altitude;pressure_sealevel;temperature;humidity
41636;BME280;27623;51.966;4.602;2024-02-23T00:00:28;64093.66;;;7.98;100.00
41636;BME280;27623;51.966;4.602;2024-02-23T00:02:53;64129.00;;;8.10;100.00
41636;BME280;27623;51.966;4.602;2024-02-23T00:05:21;64130.81;;;8.00;100.00
41636;BME280;27623;51.966;4.602;2024-02-23T00:07:47;64095.28;;;8.07;100.00
41636;BME280;27623;51.966;4.602;2024-02-23T00:10:12;64102.34;;;7.92;100.00
41636;BME280;27623;51.966;4.602;2024-02-23T00:12:37;64102.53;;;7.80;100.00
41636;BME280;27623;51.966;4.602;2024-02-23T00:15:06;64154.72;;;8.01;100.00
41636;BME280;27623;51.966;4.602;2024-02-23T00:17:32;64076.06;;;8.01;100.00
41636;BME280;27623;51.966;4.602;2024-02-23T00:19:57;64142.78;;;8.11;100.00
41636;BME280;27623;51.966;4.602;2024-02-23T00:22:23;64099.09;;;8.10;100.00
41636;BME280;27623;51.966;4.602;2024-02-23T00:24:51;64119.22;;;8.01;100.00
41636;BME280;27623;51.966;4.602;2024-02-23T00:27:16;64094.19;;;7.91;100.00
41636;BME280;27623;51.966;4.602;2024-02-23T00:29:41;64031.47;;;7.52;100.00
41636;BME280;27623;51.966;4.602;2024-02-23T00:32:07;64013.09;;;6.87;100.00
41636;BME280;27623;51.966;4.602;2024-02-23T00:34:32;63953.44;;;6.96;100.00
41636;BME280;27623;51.966;4.602;2024-02-23T00:36:57;64038.53;;;7.23;100.00
41636;BME280;27623;51.966;4.602;2024-02-23T00:39:23;64005.75;;;7.18;100.00
41636;BME280;27623;51.966;4.602;2024-02-23T00:41:48;64013.19;;;7.23;100.00
41636;BME280;27623;51.966;4.602;2024-02-23T00:44:14;64017.34;;;7.17;100.00
41636;BME280;27623;51.966;4.602;2024-02-23T00:46:39;63980.78;;;7.16;100.00
41636;BME280;27623;51.966;4.602;2024-02-23T00:49:05;64048.66;;;7.30;100.00
41636;BME280;27623;51.966;4.602;2024-02-23T00:51:31;64011.19;;;7.38;100.00
41636;BME280;27623;51.966;4.602;2024-02-23T00:53:56;64046.31;;;7.40;100.00
41636;BME280;27623;51.966;4.602;2024-02-23T00:56:22;64062.63;;;7.48;100.00
41636;BME280;27623;51.966;4.602;2024-02-23T00:58:47;64045.44;;;7.55;100.00
41636;BME280;27623;51.966;4.602;2024-02-23T01:01:12;64054.47;;;7.54;100.00
41636;BME280;27623;51.966;4.602;2024-02-23T01:03:38;64044.50;;;7.50;100.00
41636;BME280;27623;51.966;4.602;2024-02-23T01:06:03;64023.69;;;7.42;100.00
41636;BME280;27623;51.966;4.602;2024-02-23T01:08:29;64015.38;;;7.46;100.00
41636;BME280;27623;51.966;4.602;2024-02-23T01:10:54;64085.09;;;7.57;100.00
41636;BME280;27623;51.966;4.602;2024-02-23T01:13:19;64063.19;;;7.55;100.00
41636;BME280;27623;51.966;4.602;2024-02-23T01:15:45;64077.84;;;7.55;100.00
41636;BME280;27623;51.966;4.602;2024-02-23T01:18:10;64039.47;;;7.57;100.00
41636;BME280;27623;51.966;4.602;2024-02-23T01:20:36;64075.13;;;7.52;100.00
41636;BME280;27623;51.966;4.602;2024-02-23T01:23:01;64028.41;;;7.51;100.00
41636;BME280;27623;51.966;4.602;2024-02-23T01:25:26;64020.81;;;7.44;100.00
41636;BME280;27623;51.966;4.602;2024-02-23T01:27:52;64047.44;;;7.62;100.00
41636;BME280;27623;51.966;4.602;2024-02-23T01:30:17;64048.72;;;7.66;100.00
41636;BME280;27623;51.966;4.602;2024-02-23T01:32:46;64064.09;;;7.61;100.00
41636;BME280;27623;51.966;4.602;2024-02-23T01:35:11;64051.41;;;7.54;100.00
41636;BME280;27623;51.966;4.602;2024-02-23T01:37:37;64031.31;;;7.42;100.00
41636;BME280;27623;51.966;4.602;2024-02-23T01:40:05;64028.78;;;7.42;100.00
41636;BME280;27623;51.966;4.602;2024-02-23T01:42:31;64019.91;;;7.46;100.00
41636;BME280;27623;51.966;4.602;2024-02-23T01:44:56;64019.91;;;7.46;100.00
41636;BME280;27623;51.966;4.602;2024-02-23T01:47:23;64082.72;;;7.52;100.00
41636;BME280;27623;51.966;4.602;2024-02-23T01:49:49;64058.81;;;7.51;100.00
41636;BME280;27623;51.966;4.602;2024-02-23T01:52:15;63987.84;;;7.30;100.00
41636;BME280;27623;51.966;4.602;2024-02-23T01:54:41;64052.50;;;7.55;100.00
41636;BME280;27623;51.966;4.602;2024-02-23T01:57:06;64071.88;;;7.56;100.00
41636;BME280;27623;51.966;4.602;2024-02-23T01:59:35;64066.09;;;7.61;100.00
41636;BME280;27623;51.966;4.602;2024-02-23T02:02:03;64020.81;;;7.58;100.00
41636;BME280;27623;51.966;4.602;2024-02-23T02:04:28;64047.06;;;7.57;100.00
41636;BME280;27623;51.966;4.602;2024-02-23T02:06:54;64076.59;;;7.66;100.00
41636;BME280;27623;51.966;4.602;2024-02-23T02:09:20;64029.13;;;7.26;100.00
41636;BME280;27623;51.966;4.602;2024-02-23T02:11:46;64059.75;;;7.57;100.00
41636;BME280;27623;51.966;4.602;2024-02-23T02:14:12;64064.59;;;7.40;100.00
41636;BME280;27623;51.966;4.602;2024-02-23T02:16:38;64058.81;;;7.51;100.00
41636;BME280;27623;51.966;4.602;2024-02-23T02:19:04;64012.13;;;7.43;100.00
41636;BME280;27623;51.966;4.602;2024-02-23T02:21:31;63980.94;;;7.12;100.00
41636;BME280;27623;51.966;4.602;2024-02-23T02:23:56;63963.03;;;7.09;100.00
41636;BME280;27623;51.966;4.602;2024-02-23T02:26:22;63968.63;;;7.03;100.00
41636;BME280;27623;51.966;4.602;2024-02-23T02:28:47;64019.50;;;7.19;100.00
41636;BME280;27623;51.966;4.602;2024-02-23T02:31:13;63985.09;;;7.13;100.00
41636;BME280;27623;51.966;4.602;2024-02-23T02:33:40;63985.13;;;7.06;100.00
41636;BME280;27623;51.966;4.602;2024-02-23T02:36:05;63984.03;;;7.19;100.00
41636;BME280;27623;51.966;4.602;2024-02-23T02:38:31;63996.88;;;7.01;100.00
41636;BME280;27623;51.966;4.602;2024-02-23T02:40:58;63989.63;;;6.99;100.00
41636;BME280;27623;51.966;4.602;2024-02-23T02:43:25;64006.66;;;7.24;100.00
41636;BME280;27623;51.966;4.602;2024-02-23T02:45:51;63934.44;;;6.99;100.00
41636;BME280;27623;51.966;4.602;2024-02-23T02:48:16;64028.69;;;7.00;100.00
41636;BME280;27623;51.966;4.602;2024-02-23T02:50:42;64024.41;;;7.24;100.00
41636;BME280;27623;51.966;4.602;2024-02-23T02:53:08;63956.16;;;6.98;100.00
41636;BME280;27623;51.966;4.602;2024-02-23T02:55:33;63959.94;;;6.80;100.00
41636;BME280;27623;51.966;4.602;2024-02-23T02:57:58;63978.38;;;6.90;100.00
41636;BME280;27623;51.966;4.602;2024-02-23T03:00:24;63975.16;;;7.09;100.00
41636;BME280;27623;51.966;4.602;2024-02-23T03:02:49;63969.69;;;6.82;100.00
41636;BME280;27623;51.966;4.602;2024-02-23T03:05:15;63950.16;;;6.78;100.00
41636;BME280;27623;51.966;4.602;2024-02-23T03:07:40;63927.88;;;6.58;100.00
41636;BME280;27623;51.966;4.602;2024-02-23T03:10:06;63942.72;;;6.74;100.00
41636;BME280;27623;51.966;4.602;2024-02-23T03:12:32;63932.59;;;6.67;100.00
41636;BME280;27623;51.966;4.602;2024-02-23T03:14:57;63928.25;;;6.55;100.00
41636;BME280;27623;51.966;4.602;2024-02-23T03:17:23;63940.03;;;6.64;100.00
41636;BME280;27623;51.966;4.602;2024-02-23T03:19:48;63948.66;;;6.51;100.00
41636;BME280;27623;51.966;4.602;2024-02-23T03:22:15;63975.09;;;6.66;100.00
41636;BME280;27623;51.966;4.602;2024-02-23T03:24:41;63977.31;;;6.82;100.00
41636;BME280;27623;51.966;4.602;2024-02-23T03:27:06;63966.22;;;6.63;100.00
41636;BME280;27623;51.966;4.602;2024-02-23T03:29:32;63941.06;;;6.37;100.00
41636;BME280;27623;51.966;4.602;2024-02-23T03:31:57;63882.69;;;6.55;100.00
41636;BME280;27623;51.966;4.602;2024-02-23T03:34:23;63953.75;;;6.58;100.00
41636;BME280;27623;51.966;4.602;2024-02-23T03:36:51;63941.44;;;6.56;100.00
41636;BME280;27623;51.966;4.602;2024-02-23T03:39:16;63928.81;;;6.63;100.00
41636;BME280;27623;51.966;4.602;2024-02-23T03:41:42;63916.66;;;6.49;100.00
41636;BME280;27623;51.966;4.602;2024-02-23T03:44:07;63924.25;;;6.42;100.00
41636;BME280;27623;51.966;4.602;2024-02-23T03:46:33;63939.44;;;6.42;100.00
41636;BME280;27623;51.966;4.602;2024-02-23T03:48:59;63934.03;;;6.51;100.00
41636;BME280;27623;51.966;4.602;2024-02-23T03:51:25;63938.91;;;6.56;100.00
41636;BME280;27623;51.966;4.602;2024-02-23T03:53:50;63997.09;;;6.49;100.00
41636;BME280;27623;51.966;4.602;2024-02-23T03:56:16;63926.78;;;6.42;100.00
41636;BME280;27623;51.966;4.602;2024-02-23T03:58:41;63958.78;;;6.51;100.00
41636;BME280;27623;51.966;4.602;2024-02-23T04:01:07;63965.09;;;6.47;100.00
41636;BME280;27623;51.966;4.602;2024-02-23T04:03:32;63940.34;;;6.41;100.00
41636;BME280;27623;51.966;4.602;2024-02-23T04:05:57;63896.56;;;6.31;100.00
41636;BME280;27623;51.966;4.602;2024-02-23T04:08:23;63908.50;;;6.35;100.00
41636;BME280;27623;51.966;4.602;2024-02-23T04:10:48;63939.59;;;6.38;100.00
41636;BME280;27623;51.966;4.602;2024-02-23T04:13:13;63867.31;;;6.39;100.00
41636;BME280;27623;51.966;4.602;2024-02-23T04:15:40;63919.91;;;6.45;100.00
41636;BME280;27623;51.966;4.602;2024-02-23T04:18:05;63909.22;;;6.31;100.00
41636;BME280;27623;51.966;4.602;2024-02-23T04:20:31;63943.41;;;6.41;100.00
41636;BME280;27623;51.966;4.602;2024-02-23T04:22:57;63918.09;;;6.41;100.00
41636;BME280;27623;51.966;4.602;2024-02-23T04:25:22;63924.38;;;6.24;100.00
41636;BME280;27623;51.966;4.602;2024-02-23T04:27:48;63914.78;;;6.10;100.00
41636;BME280;27623;51.966;4.602;2024-02-23T04:30:13;63938.34;;;6.41;100.00
41636;BME280;27623;51.966;4.602;2024-02-23T04:32:39;63903.78;;;6.26;100.00
41636;BME280;27623;51.966;4.602;2024-02-23T04:35:05;63943.94;;;6.35;100.00
41636;BME280;27623;51.966;4.602;2024-02-23T04:37:30;63907.44;;;6.41;100.00
41636;BME280;27623;51.966;4.602;2024-02-23T04:39:55;63990.09;;;6.71;100.00
41636;BME280;27623;51.966;4.602;2024-02-23T04:42:21;63957.91;;;6.60;100.00
41636;BME280;27623;51.966;4.602;2024-02-23T04:44:46;63960.63;;;6.62;100.00
41636;BME280;27623;51.966;4.602;2024-02-23T04:47:14;63985.44;;;6.83;100.00
41636;BME280;27623;51.966;4.602;2024-02-23T04:49:40;63964.06;;;6.61;100.00
41636;BME280;27623;51.966;4.602;2024-02-23T04:52:07;63937.66;;;6.60;100.00
41636;BME280;27623;51.966;4.602;2024-02-23T04:54:36;63957.56;;;6.76;100.00
41636;BME280;27623;51.966;4.602;2024-02-23T04:57:01;63985.75;;;6.67;100.00
41636;BME280;27623;51.966;4.602;2024-02-23T04:59:27;63967.34;;;6.78;100.00
41636;BME280;27623;51.966;4.602;2024-02-23T05:01:53;63999.34;;;6.79;100.00
41636;BME280;27623;51.966;4.602;2024-02-23T05:04:18;64008.78;;;6.98;100.00
41636;BME280;27623;51.966;4.602;2024-02-23T05:06:44;63992.72;;;7.06;100.00
41636;BME280;27623;51.966;4.602;2024-02-23T05:09:09;63971.88;;;6.92;100.00
41636;BME280;27623;51.966;4.602;2024-02-23T05:11:36;63972.91;;;6.57;100.00
41636;BME280;27623;51.966;4.602;2024-02-23T05:14:01;63947.25;;;6.73;100.00
41636;BME280;27623;51.966;4.602;2024-02-23T05:16:26;63970.22;;;6.69;100.00
41636;BME280;27623;51.966;4.602;2024-02-23T05:18:52;64001.50;;;6.74;100.00
41636;BME280;27623;51.966;4.602;2024-02-23T05:21:17;63962.44;;;6.66;100.00
41636;BME280;27623;51.966;4.602;2024-02-23T05:23:45;63957.56;;;6.62;100.00
41636;BME280;27623;51.966;4.602;2024-02-23T05:26:11;63961.69;;;6.56;100.00
41636;BME280;27623;51.966;4.602;2024-02-23T05:28:37;63989.19;;;6.65;100.00
41636;BME280;27623;51.966;4.602;2024-02-23T05:31:03;63973.44;;;6.50;100.00
41636;BME280;27623;51.966;4.602;2024-02-23T05:33:31;63947.44;;;6.62;100.00
41636;BME280;27623;51.966;4.602;2024-02-23T05:35:57;63947.22;;;6.52;100.00
41636;BME280;27623;51.966;4.602;2024-02-23T05:38:22;63879.41;;;6.45;100.00
41636;BME280;27623;51.966;4.602;2024-02-23T05:40:47;63971.09;;;6.60;100.00
41636;BME280;27623;51.966;4.602;2024-02-23T05:43:13;63915.94;;;6.53;100.00
41636;BME280;27623;51.966;4.602;2024-02-23T05:45:39;63974.00;;;6.72;100.00
41636;BME280;27623;51.966;4.602;2024-02-23T05:48:04;63880.69;;;6.56;100.00
41636;BME280;27623;51.966;4.602;2024-02-23T05:50:30;63962.94;;;6.45;100.00
41636;BME280;27623;51.966;4.602;2024-02-23T05:52:56;63953.75;;;6.58;100.00
41636;BME280;27623;51.966;4.602;2024-02-23T05:55:21;63987.56;;;6.57;100.00
41636;BME280;27623;51.966;4.602;2024-02-23T05:57:47;63896.41;;;6.35;100.00
41636;BME280;27623;51.966;4.602;2024-02-23T06:00:12;63898.03;;;6.51;100.00
41636;BME280;27623;51.966;4.602;2024-02-23T06:02:38;63918.09;;;6.48;100.00
41636;BME280;27623;51.966;4.602;2024-02-23T06:05:04;63922.28;;;6.57;100.00
41636;BME280;27623;51.966;4.602;2024-02-23T06:07:33;63960.03;;;6.40;100.00
41636;BME280;27623;51.966;4.602;2024-02-23T06:09:58;63931.28;;;6.35;100.00
41636;BME280;27623;51.966;4.602;2024-02-23T06:12:24;63938.16;;;6.39;100.00
41636;BME280;27623;51.966;4.602;2024-02-23T06:14:50;63891.91;;;6.43;100.00
41636;BME280;27623;51.966;4.602;2024-02-23T06:17:16;63941.03;;;6.30;100.00
41636;BME280;27623;51.966;4.602;2024-02-23T06:19:43;63915.72;;;6.30;100.00
41636;BME280;27623;51.966;4.602;2024-02-23T06:22:09;63885.19;;;6.34;100.00
41636;BME280;27623;51.966;4.602;2024-02-23T06:24:36;63927.16;;;6.40;100.00
41636;BME280;27623;51.966;4.602;2024-02-23T06:27:01;63873.63;;;6.28;100.00
41636;BME280;27623;51.966;4.602;2024-02-23T06:29:28;63940.66;;;6.17;100.00
41636;BME280;27623;51.966;4.602;2024-02-23T06:31:55;63902.50;;;6.15;100.00
41636;BME280;27623;51.966;4.602;2024-02-23T06:34:20;63860.97;;;6.21;100.00
41636;BME280;27623;51.966;4.602;2024-02-23T06:36:45;63905.06;;;6.22;100.00
41636;BME280;27623;51.966;4.602;2024-02-23T06:39:11;63886.97;;;6.17;100.00
41636;BME280;27623;51.966;4.602;2024-02-23T06:41:38;63899.28;;;6.19;100.00
41636;BME280;27623;51.966;4.602;2024-02-23T06:44:06;63884.44;;;6.17;100.00
41636;BME280;27623;51.966;4.602;2024-02-23T06:46:32;63852.47;;;6.23;100.00
41636;BME280;27623;51.966;4.602;2024-02-23T06:48:57;63873.59;;;6.14;100.00
41636;BME280;27623;51.966;4.602;2024-02-23T06:51:22;63912.81;;;6.25;100.00
41636;BME280;27623;51.966;4.602;2024-02-23T06:53:48;63887.50;;;6.10;100.00
41636;BME280;27623;51.966;4.602;2024-02-23T06:56:13;63912.84;;;6.32;100.00
41636;BME280;27623;51.966;4.602;2024-02-23T06:58:39;63928.19;;;6.20;100.00
41636;BME280;27623;51.966;4.602;2024-02-23T07:01:04;63898.91;;;6.21;100.00
41636;BME280;27623;51.966;4.602;2024-02-23T07:03:32;63872.72;;;6.23;100.00
41636;BME280;27623;51.966;4.602;2024-02-23T07:05:57;63900.72;;;6.25;100.00
41636;BME280;27623;51.966;4.602;2024-02-23T07:08:23;63901.09;;;6.23;100.00
41636;BME280;27623;51.966;4.602;2024-02-23T07:10:48;63912.31;;;6.38;100.00
41636;BME280;27623;51.966;4.602;2024-02-23T07:13:16;63910.13;;;6.36;100.00
41636;BME280;27623;51.966;4.602;2024-02-23T07:15:43;63905.63;;;6.44;100.00
41636;BME280;27623;51.966;4.602;2024-02-23T07:18:08;63902.19;;;6.38;100.00
41636;BME280;27623;51.966;4.602;2024-02-23T07:20:35;63935.47;;;6.43;100.00
41636;BME280;27623;51.966;4.602;2024-02-23T07:23:01;63905.09;;;6.43;100.00
41636;BME280;27623;51.966;4.602;2024-02-23T07:25:26;63923.53;;;6.46;100.00
41636;BME280;27623;51.966;4.602;2024-02-23T07:27:52;63899.09;;;6.24;100.00
41636;BME280;27623;51.966;4.602;2024-02-23T07:30:19;63876.69;;;6.22;100.00
41636;BME280;27623;51.966;4.602;2024-02-23T07:32:45;63918.06;;;6.27;100.00
41636;BME280;27623;51.966;4.602;2024-02-23T07:35:14;63890.59;;;6.25;100.00
41636;BME280;27623;51.966;4.602;2024-02-23T07:37:39;63916.78;;;6.16;100.00
41636;BME280;27623;51.966;4.602;2024-02-23T07:40:05;63893.66;;;6.11;100.00
41636;BME280;27623;51.966;4.602;2024-02-23T07:42:33;63904.31;;;6.12;100.00
41636;BME280;27623;51.966;4.602;2024-02-23T07:45:02;63858.44;;;6.14;100.00
41636;BME280;27623;51.966;4.602;2024-02-23T07:47:29;63838.00;;;6.04;100.00
41636;BME280;27623;51.966;4.602;2024-02-23T07:49:55;63908.91;;;5.85;100.00
41636;BME280;27623;51.966;4.602;2024-02-23T07:52:20;63867.03;;;5.86;100.00
41636;BME280;27623;51.966;4.602;2024-02-23T07:54:51;63868.09;;;5.87;100.00
41636;BME280;27623;51.966;4.602;2024-02-23T07:57:20;63868.28;;;5.83;100.00
41636;BME280;27623;51.966;4.602;2024-02-23T07:59:46;63863.59;;;5.88;100.00
41636;BME280;27623;51.966;4.602;2024-02-23T08:02:12;63845.91;;;5.81;100.00
41636;BME280;27623;51.966;4.602;2024-02-23T08:04:37;63842.09;;;5.84;100.00
41636;BME280;27623;51.966;4.602;2024-02-23T08:07:05;63838.31;;;5.88;100.00
41636;BME280;27623;51.966;4.602;2024-02-23T08:09:34;63841.00;;;5.83;100.00
41636;BME280;27623;51.966;4.602;2024-02-23T08:11:59;63913.47;;;5.92;100.00
41636;BME280;27623;51.966;4.602;2024-02-23T08:14:25;63907.81;;;5.84;100.00
41636;BME280;27623;51.966;4.602;2024-02-23T08:16:50;63831.78;;;5.75;100.00
41636;BME280;27623;51.966;4.602;2024-02-23T08:19:16;63945.22;;;5.84;100.00
41636;BME280;27623;51.966;4.602;2024-02-23T08:21:41;63886.50;;;5.76;100.00
41636;BME280;27623;51.966;4.602;2024-02-23T08:24:07;63854.91;;;5.80;100.00
41636;BME280;27623;51.966;4.602;2024-02-23T08:26:32;63863.22;;;5.83;100.00
41636;BME280;27623;51.966;4.602;2024-02-23T08:28:59;63920.34;;;5.96;100.00
41636;BME280;27623;51.966;4.602;2024-02-23T08:31:24;63894.84;;;5.86;100.00
41636;BME280;27623;51.966;4.602;2024-02-23T08:33:49;63898.84;;;5.93;100.00
41636;BME280;27623;51.966;4.602;2024-02-23T08:36:15;63898.63;;;5.83;100.00
41636;BME280;27623;51.966;4.602;2024-02-23T08:38:40;63876.22;;;5.81;100.00
41636;BME280;27623;51.966;4.602;2024-02-23T08:41:06;63887.28;;;5.94;100.00
41636;BME280;27623;51.966;4.602;2024-02-23T08:43:31;63843.69;;;5.72;100.00
41636;BME280;27623;51.966;4.602;2024-02-23T08:45:56;63882.00;;;5.77;100.00
41636;BME280;27623;51.966;4.602;2024-02-23T08:48:22;63880.56;;;5.78;100.00
41636;BME280;27623;51.966;4.602;2024-02-23T08:50:47;63809.22;;;5.84;100.00
41636;BME280;27623;51.966;4.602;2024-02-23T08:53:12;63934.44;;;5.95;100.00
41636;BME280;27623;51.966;4.602;2024-02-23T08:55:38;63904.41;;;5.86;100.00
41636;BME280;27623;51.966;4.602;2024-02-23T08:58:03;63974.50;;;5.90;100.00
41636;BME280;27623;51.966;4.602;2024-02-23T09:00:31;63894.72;;;5.98;100.00
41636;BME280;27623;51.966;4.602;2024-02-23T09:02:56;63947.47;;;6.07;100.00
41636;BME280;27623;51.966;4.602;2024-02-23T09:05:24;63936.81;;;6.07;100.00
41636;BME280;27623;51.966;4.602;2024-02-23T09:07:49;63955.25;;;6.10;100.00
41636;BME280;27623;51.966;4.602;2024-02-23T09:10:15;63944.03;;;6.09;100.00
41636;BME280;27623;51.966;4.602;2024-02-23T09:12:40;63925.44;;;6.10;100.00
41636;BME280;27623;51.966;4.602;2024-02-23T09:15:06;63953.28;;;6.17;100.00
41636;BME280;27623;51.966;4.602;2024-02-23T09:17:32;63933.06;;;6.25;100.00
41636;BME280;27623;51.966;4.602;2024-02-23T09:19:58;63937.25;;;6.40;100.00
41636;BME280;27623;51.966;4.602;2024-02-23T09:22:23;63967.94;;;6.24;100.00
41636;BME280;27623;51.966;4.602;2024-02-23T09:24:49;63886.63;;;6.19;100.00
41636;BME280;27623;51.966;4.602;2024-02-23T09:27:14;63947.34;;;6.26;100.00
41636;BME280;27623;51.966;4.602;2024-02-23T09:29:40;63916.81;;;6.31;100.00
41636;BME280;27623;51.966;4.602;2024-02-23T09:32:08;63989.31;;;6.46;100.00
41636;BME280;27623;51.966;4.602;2024-02-23T09:34:34;64005.59;;;6.47;100.00
41636;BME280;27623;51.966;4.602;2024-02-23T09:36:59;63916.66;;;6.49;100.00
41636;BME280;27623;51.966;4.602;2024-02-23T09:39:25;63959.16;;;6.56;100.00
41636;BME280;27623;51.966;4.602;2024-02-23T09:41:54;63930.22;;;6.48;100.00
41636;BME280;27623;51.966;4.602;2024-02-23T09:44:19;64022.09;;;6.65;100.00
41636;BME280;27623;51.966;4.602;2024-02-23T09:46:47;63989.03;;;6.70;100.00
41636;BME280;27623;51.966;4.602;2024-02-23T09:49:15;63936.94;;;6.64;100.00
41636;BME280;27623;51.966;4.602;2024-02-23T09:51:40;63959.53;;;6.61;100.00
41636;BME280;27623;51.966;4.602;2024-02-23T09:54:06;63963.72;;;6.77;100.00
41636;BME280;27623;51.966;4.602;2024-02-23T09:56:32;63996.28;;;6.79;100.00
41636;BME280;27623;51.966;4.602;2024-02-23T09:59:01;63976.94;;;6.77;100.00
41636;BME280;27623;51.966;4.602;2024-02-23T10:01:28;64015.50;;;6.99;100.00
41636;BME280;27623;51.966;4.602;2024-02-23T10:03:59;64005.88;;;6.85;100.00
41636;BME280;27623;51.966;4.602;2024-02-23T10:06:25;63971.50;;;6.79;100.00
41636;BME280;27623;51.966;4.602;2024-02-23T10:08:51;63974.59;;;7.08;100.00
41636;BME280;27623;51.966;4.602;2024-02-23T10:11:23;64035.22;;;6.99;100.00
41636;BME280;27623;51.966;4.602;2024-02-23T10:13:50;63986.19;;;7.07;100.00
41636;BME280;27623;51.966;4.602;2024-02-23T10:16:17;64033.25;;;7.28;100.00
41636;BME280;27623;51.966;4.602;2024-02-23T10:18:43;64030.38;;;7.37;100.00
41636;BME280;27623;51.966;4.602;2024-02-23T10:21:08;64058.28;;;7.44;100.00
41636;BME280;27623;51.966;4.602;2024-02-23T10:23:34;64077.69;;;7.67;100.00
41636;BME280;27623;51.966;4.602;2024-02-23T10:25:59;64097.81;;;7.85;100.00
41636;BME280;27623;51.966;4.602;2024-02-23T10:28:24;64105.03;;;7.73;100.00
41636;BME280;27623;51.966;4.602;2024-02-23T10:30:50;64119.72;;;7.80;100.00
41636;BME280;27623;51.966;4.602;2024-02-23T10:33:18;64136.41;;;7.93;100.00
41636;BME280;27623;51.966;4.602;2024-02-23T10:35:48;64092.03;;;8.18;100.00
41636;BME280;27623;51.966;4.602;2024-02-23T10:38:20;64141.19;;;8.31;100.00
41636;BME280;27623;51.966;4.602;2024-02-23T10:40:47;64137.00;;;8.29;100.00
41636;BME280;27623;51.966;4.602;2024-02-23T10:43:16;64155.50;;;8.25;100.00
41636;BME280;27623;51.966;4.602;2024-02-23T10:45:45;64169.13;;;8.45;100.00
41636;BME280;27623;51.966;4.602;2024-02-23T10:48:11;64206.88;;;8.75;100.00
41636;BME280;27623;51.966;4.602;2024-02-23T10:50:38;64201.44;;;8.77;100.00
41636;BME280;27623;51.966;4.602;2024-02-23T10:53:07;64166.59;;;8.73;100.00
41636;BME280;27623;51.966;4.602;2024-02-23T10:55:36;64206.34;;;8.82;100.00
41636;BME280;27623;51.966;4.602;2024-02-23T10:58:02;64222.13;;;8.68;100.00
41636;BME280;27623;51.966;4.602;2024-02-23T11:00:29;64196.69;;;8.54;100.00
41636;BME280;27623;51.966;4.602;2024-02-23T11:02:56;64184.00;;;8.61;100.00
41636;BME280;27623;51.966;4.602;2024-02-23T11:05:23;64122.31;;;8.30;100.00
41636;BME280;27623;51.966;4.602;2024-02-23T11:07:49;64141.56;;;8.43;100.00
41636;BME280;27623;51.966;4.602;2024-02-23T11:10:15;64170.34;;;8.27;100.00
41636;BME280;27623;51.966;4.602;2024-02-23T11:12:41;64156.41;;;8.38;100.00
41636;BME280;27623;51.966;4.602;2024-02-23T11:15:07;64153.91;;;8.52;100.00
41636;BME280;27623;51.966;4.602;2024-02-23T11:17:34;64123.06;;;8.47;100.00
41636;BME280;27623;51.966;4.602;2024-02-23T11:20:03;64179.47;;;8.76;100.00
41636;BME280;27623;51.966;4.602;2024-02-23T11:22:34;64185.84;;;8.72;100.00
41636;BME280;27623;51.966;4.602;2024-02-23T11:25:04;64133.75;;;8.54;100.00
41636;BME280;27623;51.966;4.602;2024-02-23T11:27:33;64172.22;;;8.67;100.00
41636;BME280;27623;51.966;4.602;2024-02-23T11:30:02;64177.66;;;8.50;100.00
41636;BME280;27623;51.966;4.602;2024-02-23T11:32:42;64148.28;;;8.66;100.00
41636;BME280;27623;51.966;4.602;2024-02-23T11:35:11;64179.84;;;8.81;100.00
41636;BME280;27623;51.966;4.602;2024-02-23T11:37:52;64129.22;;;8.62;100.00
41636;BME280;27623;51.966;4.602;2024-02-23T11:40:25;64160.59;;;8.89;100.00
41636;BME280;27623;51.966;4.602;2024-02-23T11:42:51;64192.38;;;8.92;100.00
41636;BME280;27623;51.966;4.602;2024-02-23T11:45:16;64155.88;;;8.58;100.00
41636;BME280;27623;51.966;4.602;2024-02-23T11:47:42;64234.13;;;8.93;100.00
41636;BME280;27623;51.966;4.602;2024-02-23T11:50:08;64168.59;;;8.66;100.00
41636;BME280;27623;51.966;4.602;2024-02-23T11:52:34;64185.81;;;8.58;100.00
41636;BME280;27623;51.966;4.602;2024-02-23T11:54:59;64141.19;;;8.80;100.00
41636;BME280;27623;51.966;4.602;2024-02-23T11:57:25;64159.16;;;8.90;100.00
41636;BME280;27623;51.966;4.602;2024-02-23T11:59:51;64205.78;;;9.17;100.00
41636;BME280;27623;51.966;4.602;2024-02-23T12:02:17;64290.41;;;9.20;100.00
41636;BME280;27623;51.966;4.602;2024-02-23T12:04:43;64259.91;;;9.41;100.00
41636;BME280;27623;51.966;4.602;2024-02-23T12:07:08;64284.94;;;9.86;100.00
41636;BME280;27623;51.966;4.602;2024-02-23T12:09:34;64330.75;;;10.00;100.00
41636;BME280;27623;51.966;4.602;2024-02-23T12:12:00;64281.16;;;9.61;100.00
41636;BME280;27623;51.966;4.602;2024-02-23T12:14:25;64231.94;;;9.27;100.00
41636;BME280;27623;51.966;4.602;2024-02-23T12:16:51;64241.16;;;9.57;100.00
41636;BME280;27623;51.966;4.602;2024-02-23T12:19:17;64285.69;;;9.75;100.00
41636;BME280;27623;51.966;4.602;2024-02-23T12:21:45;64279.16;;;9.61;100.00
41636;BME280;27623;51.966;4.602;2024-02-23T12:24:12;64294.78;;;9.74;100.00
41636;BME280;27623;51.966;4.602;2024-02-23T12:26:38;64296.94;;;9.83;100.00
41636;BME280;27623;51.966;4.602;2024-02-23T12:29:03;64297.88;;;9.74;100.00
41636;BME280;27623;51.966;4.602;2024-02-23T12:31:32;64293.66;;;9.94;100.00
41636;BME280;27623;51.966;4.602;2024-02-23T12:33:57;64357.50;;;10.39;96.69
41636;BME280;27623;51.966;4.602;2024-02-23T12:36:23;64335.84;;;10.28;95.00
41636;BME280;27623;51.966;4.602;2024-02-23T12:38:48;64328.75;;;10.00;95.57
41636;BME280;27623;51.966;4.602;2024-02-23T12:41:14;64316.75;;;9.89;96.37
41636;BME280;27623;51.966;4.602;2024-02-23T12:43:40;64333.47;;;10.17;96.65
41636;BME280;27623;51.966;4.602;2024-02-23T12:46:05;64310.19;;;10.12;96.42
41636;BME280;27623;51.966;4.602;2024-02-23T12:48:33;64324.56;;;10.06;96.53
41636;BME280;27623;51.966;4.602;2024-02-23T12:50:59;64292.41;;;9.62;97.74
41636;BME280;27623;51.966;4.602;2024-02-23T12:53:40;64300.22;;;9.86;97.67